Time;durP1;ratioP1;P1;durP2;ratioP2;P2;SDS_P1;SDS_P2;PMS_P1;PMS_P2;Temp;Humidity;BMP_temperature;BMP_pressure;BME280_temperature;BME280_humidity;BME280_pressure;Samples;Min_cycle;Max_cycle;Signal;HPM_P1;HPM_P2
2022/11/19 00:01:48;;;;;;;31.50;28.37;;;8.00;99.90;;;;;;5043246;28;20036;-80
2022/11/19 00:04:14;;;;;;;31.17;28.27;;;7.90;99.90;;;;;;5031882;28;20033;-80
2022/11/19 00:06:40;;;;;;;32.40;29.20;;;7.90;99.90;;;;;;5051134;28;20029;-80
2022/11/19 00:09:09;;;;;;;31.57;28.63;;;7.90;99.90;;;;;;5031292;28;20052;-80
2022/11/19 00:14:20;;;;;;;31.83;28.60;;;7.70;99.90;;;;;;5021006;28;20037;-80
2022/11/19 00:16:46;;;;;;;31.70;28.90;;;7.70;99.90;;;;;;5004954;28;20025;-80
2022/11/19 00:19:13;;;;;;;32.17;29.00;;;7.70;99.90;;;;;;5032660;28;20025;-80
2022/11/19 00:21:39;;;;;;;31.07;28.17;;;7.80;99.90;;;;;;5036219;28;20038;-81
2022/11/19 00:24:06;;;;;;;30.33;27.33;;;7.80;99.90;;;;;;5030172;28;20029;-80
2022/11/19 00:26:32;;;;;;;32.03;29.00;;;7.80;99.90;;;;;;5049077;28;20040;-80
2022/11/19 00:28:58;;;;;;;31.93;28.83;;;7.80;99.90;;;;;;5051031;28;20025;-80
2022/11/19 00:31:24;;;;;;;31.67;28.67;;;7.70;99.90;;;;;;5049787;28;20045;-81
2022/11/19 00:33:52;;;;;;;32.80;29.47;;;7.70;99.90;;;;;;4999028;28;20056;-80
2022/11/19 00:36:19;;;;;;;31.97;28.97;;;7.70;99.90;;;;;;5002315;28;20394;-81
2022/11/19 00:38:45;;;;;;;31.70;28.77;;;7.70;99.90;;;;;;5007449;28;20028;-81
2022/11/19 00:41:11;;;;;;;31.53;28.83;;;7.60;99.90;;;;;;5044156;28;20038;-80
2022/11/19 00:43:46;;;;;;;31.70;28.47;;;7.60;99.90;;;;;;5004152;28;20037;-81
2022/11/19 00:46:16;;;;;;;32.00;29.17;;;7.60;99.90;;;;;;5020037;28;20037;-81
2022/11/19 00:48:42;;;;;;;32.33;29.40;;;7.60;99.90;;;;;;5046770;28;20470;-80
2022/11/19 00:51:08;;;;;;;34.50;31.13;;;7.60;99.90;;;;;;5026374;28;20385;-80
2022/11/19 00:53:34;;;;;;;35.07;31.40;;;7.60;99.90;;;;;;5020722;28;20037;-80
2022/11/19 00:56:08;;;;;;;35.87;32.17;;;7.60;99.90;;;;;;5047865;28;20060;-81
2022/11/19 00:58:34;;;;;;;38.30;32.23;;;7.60;99.90;;;;;;5035520;28;20041;-80
2022/11/19 01:01:01;;;;;;;35.67;32.27;;;7.70;99.90;;;;;;5042185;28;20436;-81
2022/11/19 01:03:27;;;;;;;35.83;32.20;;;7.60;99.90;;;;;;5031110;28;20033;-80
2022/11/19 01:05:53;;;;;;;35.27;31.57;;;7.70;99.90;;;;;;5019381;28;20037;-80
2022/11/19 01:08:19;;;;;;;36.80;32.97;;;7.60;99.90;;;;;;5012506;28;20474;-80
2022/11/19 01:10:45;;;;;;;36.93;33.17;;;7.60;99.90;;;;;;5008149;28;20037;-80
2022/11/19 01:15:56;;;;;;;34.77;31.67;;;7.60;99.90;;;;;;5045275;28;20052;-81
2022/11/19 01:18:22;;;;;;;35.00;31.50;;;7.60;99.90;;;;;;5032051;28;20033;-80
2022/11/19 01:20:48;;;;;;;35.87;32.20;;;7.60;99.90;;;;;;5052845;28;20059;-80
2022/11/19 01:23:14;;;;;;;37.20;33.23;;;7.60;99.90;;;;;;5037130;28;20462;-80
2022/11/19 01:25:40;;;;;;;38.07;34.23;;;7.50;99.90;;;;;;5048686;28;20036;-80
2022/11/19 01:28:06;;;;;;;35.77;32.20;;;7.40;99.90;;;;;;5034277;28;20038;-80
2022/11/19 01:30:33;;;;;;;37.43;33.37;;;7.50;99.90;;;;;;5034325;28;20087;-80
2022/11/19 01:32:59;;;;;;;34.90;31.47;;;7.50;99.90;;;;;;5008327;28;20033;-80
2022/11/19 01:35:25;;;;;;;36.70;32.97;;;7.40;99.90;;;;;;5000990;28;20386;-80
2022/11/19 01:37:51;;;;;;;35.60;32.20;;;7.40;99.90;;;;;;5034529;28;20037;-80
2022/11/19 01:40:17;;;;;;;36.60;32.87;;;7.40;99.90;;;;;;5019089;28;20063;-80
2022/11/19 01:42:49;;;;;;;37.57;33.40;;;7.30;99.90;;;;;;5034231;28;20033;-80
2022/11/19 01:45:35;;;;;;;34.77;31.53;;;7.30;99.90;;;;;;5017271;28;20026;-81
2022/11/19 01:48:23;;;;;;;36.27;32.67;;;7.20;99.90;;;;;;5015999;28;20426;-80
2022/11/19 01:51:01;;;;;;;35.53;32.07;;;7.30;99.90;;;;;;5022548;28;20350;-80
2022/11/19 01:53:29;;;;;;;35.33;31.93;;;7.40;99.90;;;;;;5014992;28;20556;-80
2022/11/19 01:55:58;;;;;;;35.23;31.43;;;7.30;99.90;;;;;;5009201;28;20037;-80
2022/11/19 01:58:24;;;;;;;34.63;31.23;;;7.20;99.90;;;;;;5035002;28;20049;-80
2022/11/19 02:00:50;;;;;;;33.23;30.20;;;7.20;99.90;;;;;;5006139;28;20052;-81
2022/11/19 02:03:16;;;;;;;34.57;31.00;;;7.20;99.90;;;;;;5016116;28;20041;-80
2022/11/19 02:05:42;;;;;;;34.23;30.87;;;7.10;99.90;;;;;;5017194;28;20049;-80
2022/11/19 02:08:29;;;;;;;34.23;30.80;;;7.20;99.90;;;;;;5025810;28;20394;-80
2022/11/19 02:11:02;;;;;;;32.77;29.57;;;7.20;99.90;;;;;;5052031;28;20039;-80
2022/11/19 02:13:35;;;;;;;32.77;29.73;;;7.20;99.90;;;;;;5019163;28;20041;-80
2022/11/19 02:16:14;;;;;;;35.97;32.33;;;7.10;99.90;;;;;;5016157;28;20375;-80
2022/11/19 02:18:55;;;;;;;34.40;31.23;;;7.10;99.90;;;;;;5007579;28;20024;-80
2022/11/19 02:21:24;;;;;;;35.72;31.95;;;7.20;99.90;;;;;;5017454;28;20072;-80
2022/11/19 02:24:28;;;;;;;36.23;32.67;;;7.20;99.90;;;;;;5050321;28;20385;-80
2022/11/19 02:27:15;;;;;;;32.97;29.63;;;7.20;99.90;;;;;;5040328;28;20025;-80
2022/11/19 02:30:01;;;;;;;32.70;29.43;;;7.20;99.90;;;;;;5043327;28;20044;-80
2022/11/19 02:32:39;;;;;;;33.63;30.23;;;7.20;99.90;;;;;;5013039;28;20030;-80
2022/11/19 02:35:13;;;;;;;32.33;29.20;;;7.20;99.90;;;;;;5004227;28;20021;-80
2022/11/19 02:38:02;;;;;;;32.53;29.27;;;7.10;99.90;;;;;;5019355;28;20033;-80
2022/11/19 02:40:30;;;;;;;32.10;29.00;;;7.10;99.90;;;;;;5012190;28;20053;-80
2022/11/19 02:43:25;;;;;;;33.30;29.93;;;7.00;99.90;;;;;;5006526;28;20028;-80
2022/11/19 02:46:12;;;;;;;32.47;29.13;;;7.00;99.90;;;;;;5020294;28;20432;-80
2022/11/19 02:48:41;;;;;;;31.80;28.90;;;7.00;99.90;;;;;;5028130;28;20037;-80
2022/11/19 02:51:07;;;;;;;33.73;29.53;;;7.00;99.90;;;;;;5017112;28;20036;-80
2022/11/19 02:53:33;;;;;;;32.03;29.13;;;6.90;99.90;;;;;;5016573;28;20025;-80
2022/11/19 02:56:11;;;;;;;32.43;29.47;;;6.90;99.90;;;;;;5043692;28;20496;-80
2022/11/19 03:04:31;;;;;;;29.57;26.97;;;6.70;99.90;;;;;;5008458;28;20036;-80
2022/11/19 03:06:59;;;;;;;31.03;28.33;;;6.70;99.90;;;;;;5019655;28;20033;-80
2022/11/19 03:09:25;;;;;;;32.27;29.23;;;6.80;99.90;;;;;;5036849;28;20033;-80
2022/11/19 03:11:54;;;;;;;31.33;28.23;;;6.70;99.90;;;;;;5008736;28;20033;-80
2022/11/19 03:17:20;;;;;;;29.40;26.90;;;6.70;99.90;;;;;;5011722;28;20036;-80
2022/11/19 03:19:57;;;;;;;29.20;26.77;;;6.70;99.90;;;;;;5023320;28;20045;-80
2022/11/19 03:22:27;;;;;;;31.37;28.07;;;6.70;99.90;;;;;;5004948;28;20855;-80
2022/11/19 03:25:01;;;;;;;30.17;27.10;;;6.60;99.90;;;;;;5024800;28;20149;-80
2022/11/19 03:27:37;;;;;;;30.43;27.33;;;6.60;99.90;;;;;;5007550;28;20467;-82
2022/11/19 03:30:04;;;;;;;29.17;26.27;;;6.60;99.90;;;;;;4998241;28;20045;-82
2022/11/19 03:32:34;;;;;;;28.97;26.57;;;6.60;99.90;;;;;;5007508;28;20037;-82
2022/11/19 03:35:03;;;;;;;31.17;28.17;;;6.70;99.90;;;;;;4994733;28;20052;-82
2022/11/19 03:37:29;;;;;;;29.97;27.27;;;6.70;99.90;;;;;;5001457;28;20025;-80
2022/11/19 03:39:56;;;;;;;29.27;26.33;;;6.60;99.90;;;;;;5001345;28;20072;-80
2022/11/19 03:42:22;;;;;;;32.83;27.23;;;6.70;99.90;;;;;;5005617;28;20025;-80
2022/11/19 03:44:50;;;;;;;30.50;27.83;;;6.70;99.90;;;;;;5016185;28;20425;-80
2022/11/19 03:47:19;;;;;;;31.30;28.27;;;6.60;99.90;;;;;;5014576;28;20391;-80
2022/11/19 03:49:49;;;;;;;29.70;27.10;;;6.60;99.90;;;;;;5013837;28;20494;-80
2022/11/19 03:52:19;;;;;;;29.23;26.47;;;6.60;99.90;;;;;;5013050;28;20040;-80
2022/11/19 03:54:45;;;;;;;29.80;27.27;;;6.50;99.90;;;;;;5000304;28;20037;-80
2022/11/19 03:57:13;;;;;;;28.33;25.70;;;6.50;99.90;;;;;;5019660;28;20053;-82
2022/11/19 03:59:39;;;;;;;29.73;26.80;;;6.50;99.90;;;;;;4993796;28;20041;-83
2022/11/19 04:02:07;;;;;;;29.27;26.70;;;6.50;99.90;;;;;;4994972;28;20053;-80
2022/11/19 04:04:36;;;;;;;26.47;24.17;;;6.50;99.90;;;;;;5025179;28;20029;-78
2022/11/19 04:07:09;;;;;;;28.90;26.20;;;6.40;99.90;;;;;;5034716;28;20512;-78
2022/11/19 04:09:35;;;;;;;27.67;25.17;;;6.50;99.90;;;;;;5031171;28;20052;-79
2022/11/19 04:12:02;;;;;;;27.67;25.20;;;6.40;99.90;;;;;;5021065;28;20032;-84
2022/11/19 04:14:28;;;;;;;28.33;25.93;;;6.40;99.90;;;;;;5007603;28;20072;-82
2022/11/19 04:16:55;;;;;;;28.30;25.53;;;6.40;99.90;;;;;;5018614;28;20041;-82
2022/11/19 04:19:21;;;;;;;27.03;24.63;;;6.40;99.90;;;;;;5000390;28;20025;-82
2022/11/19 04:21:47;;;;;;;27.47;24.87;;;6.30;99.90;;;;;;5012067;28;20490;-82
2022/11/19 04:24:13;;;;;;;26.73;24.33;;;6.40;99.90;;;;;;5013778;28;20081;-82
2022/11/19 04:26:39;;;;;;;25.90;23.80;;;6.40;99.90;;;;;;5019552;28;20029;-83
2022/11/19 04:29:05;;;;;;;37.97;24.73;;;6.50;99.90;;;;;;5030571;28;20033;-82
2022/11/19 04:31:32;;;;;;;27.20;24.40;;;6.50;99.90;;;;;;5020656;28;20041;-83
2022/11/19 04:33:58;;;;;;;29.23;24.23;;;6.40;99.90;;;;;;5029044;28;20049;-82
2022/11/19 04:36:24;;;;;;;37.53;27.07;;;6.40;99.90;;;;;;5050480;28;20041;-82
2022/11/19 04:38:50;;;;;;;38.70;24.90;;;6.40;99.90;;;;;;5030896;28;20033;-82
2022/11/19 04:41:16;;;;;;;27.83;25.00;;;6.30;99.90;;;;;;5019358;28;20048;-82
2022/11/19 04:43:42;;;;;;;26.63;24.13;;;6.30;99.90;;;;;;5012433;28;20042;-84
2022/11/19 04:46:08;;;;;;;38.57;26.13;;;6.40;99.90;;;;;;5014307;28;20045;-82
2022/11/19 04:48:34;;;;;;;28.00;25.53;;;6.40;99.90;;;;;;5024977;28;20025;-82
2022/11/19 04:51:00;;;;;;;25.57;23.37;;;6.40;99.90;;;;;;5049868;28;20028;-82
2022/11/19 04:53:26;;;;;;;26.73;24.53;;;6.50;99.90;;;;;;5033975;28;20033;-82
2022/11/19 04:55:53;;;;;;;27.23;24.90;;;6.50;99.90;;;;;;5036383;28;20037;-83
2022/11/19 04:58:19;;;;;;;147.23;29.37;;;6.50;99.90;;;;;;5015976;28;20033;-82
2022/11/19 05:00:46;;;;;;;26.20;23.73;;;6.50;99.90;;;;;;5035472;28;20044;-82
2022/11/19 05:03:12;;;;;;;61.27;25.40;;;6.40;99.90;;;;;;5005057;28;20422;-83
2022/11/19 05:05:38;;;;;;;27.07;24.47;;;6.40;99.90;;;;;;5018211;28;20029;-83
2022/11/19 05:08:05;;;;;;;51.80;25.90;;;6.40;99.90;;;;;;5017637;28;20375;-83
2022/11/19 05:10:31;;;;;;;38.23;25.83;;;6.30;99.90;;;;;;5011982;28;20025;-83
2022/11/19 05:12:57;;;;;;;27.37;24.87;;;6.40;99.90;;;;;;5001667;28;20113;-83
2022/11/19 05:15:23;;;;;;;27.73;24.80;;;6.40;99.90;;;;;;5029739;28;20045;-83
2022/11/19 05:17:49;;;;;;;66.97;25.87;;;6.40;99.90;;;;;;5013361;28;20026;-83
2022/11/19 05:20:15;;;;;;;40.20;25.80;;;6.40;99.90;;;;;;5047925;28;20040;-83
2022/11/19 05:22:41;;;;;;;30.43;24.27;;;6.40;99.90;;;;;;5004276;28;20041;-83
2022/11/19 05:25:08;;;;;;;26.63;24.13;;;6.50;99.90;;;;;;5027191;28;20029;-83
2022/11/19 05:27:34;;;;;;;25.10;22.90;;;6.50;99.90;;;;;;5016278;28;20030;-83
2022/11/19 05:30:00;;;;;;;68.37;25.27;;;6.50;99.90;;;;;;5007313;28;20398;-83
2022/11/19 05:32:26;;;;;;;190.17;28.53;;;6.50;99.90;;;;;;5016423;28;20402;-84
2022/11/19 05:34:52;;;;;;;994.07;66.90;;;6.50;99.90;;;;;;5028974;28;20291;-84
2022/11/19 05:37:18;;;;;;;455.90;41.70;;;6.60;99.90;;;;;;5019095;28;20048;-83
2022/11/19 05:39:44;;;;;;;26.23;24.03;;;6.60;99.90;;;;;;5035978;28;20478;-83
2022/11/19 05:42:10;;;;;;;28.07;25.20;;;6.60;99.90;;;;;;5017701;28;20037;-83
2022/11/19 05:44:36;;;;;;;26.07;23.77;;;6.70;99.90;;;;;;5013507;28;20494;-84
2022/11/19 05:47:02;;;;;;;25.50;23.33;;;6.70;99.90;;;;;;5022549;28;20042;-84
2022/11/19 05:49:28;;;;;;;25.97;23.23;;;6.70;99.90;;;;;;5010918;28;20383;-84
2022/11/19 05:51:55;;;;;;;26.97;24.77;;;6.70;99.90;;;;;;5029544;28;20033;-85
2022/11/19 05:54:21;;;;;;;29.03;25.97;;;6.70;99.90;;;;;;5033116;28;20461;-84
2022/11/19 05:56:47;;;;;;;219.07;31.97;;;6.60;99.90;;;;;;5013642;28;20042;-84
2022/11/19 05:59:14;;;;;;;118.80;29.13;;;6.50;99.90;;;;;;5010041;28;20049;-84
2022/11/19 06:01:40;;;;;;;27.40;24.57;;;6.50;99.90;;;;;;5016335;28;20041;-84
2022/11/19 06:04:07;;;;;;;35.63;23.97;;;6.40;99.90;;;;;;5016302;28;20097;-84
2022/11/19 06:06:33;;;;;;;58.43;25.40;;;6.50;99.90;;;;;;5003399;28;20052;-87
2022/11/19 06:08:59;;;;;;;26.83;24.30;;;6.50;99.90;;;;;;5042602;28;20041;-85
2022/11/19 06:14:09;;;;;;;26.63;24.33;;;6.50;99.90;;;;;;5035282;28;20040;-81
2022/11/19 06:16:36;;;;;;;27.73;25.10;;;6.50;99.90;;;;;;5044933;28;20036;-81
2022/11/19 06:19:02;;;;;;;28.13;25.63;;;6.40;99.90;;;;;;5051736;28;20393;-81
2022/11/19 06:21:28;;;;;;;161.63;29.60;;;6.50;99.90;;;;;;5019358;28;20044;-81
2022/11/19 06:23:54;;;;;;;95.90;27.53;;;6.50;99.90;;;;;;5014227;28;20042;-81
2022/11/19 06:26:24;;;;;;;55.63;25.57;;;6.50;99.90;;;;;;5045826;28;20033;-81
2022/11/19 06:28:50;;;;;;;28.43;25.60;;;6.50;99.90;;;;;;5044697;28;20032;-82
2022/11/19 06:31:16;;;;;;;199.97;34.07;;;6.50;99.90;;;;;;5052655;28;20108;-84
2022/11/19 06:33:42;;;;;;;44.90;25.77;;;6.60;99.90;;;;;;5035524;28;20033;-82
2022/11/19 06:36:08;;;;;;;516.73;49.07;;;6.70;99.90;;;;;;5052623;28;20033;-82
2022/11/19 06:38:34;;;;;;;28.60;26.13;;;6.70;99.90;;;;;;5037084;28;21397;-82
2022/11/19 06:41:01;;;;;;;108.53;27.47;;;6.60;99.90;;;;;;5051030;28;20045;-82
2022/11/19 06:43:27;;;;;;;121.90;27.97;;;6.50;99.90;;;;;;5041696;28;20467;-81
2022/11/19 06:45:54;;;;;;;81.53;25.40;;;6.50;99.90;;;;;;5005289;28;20048;-81
2022/11/19 06:48:20;;;;;;;118.23;27.67;;;6.40;99.90;;;;;;5052895;28;20520;-81
2022/11/19 06:50:46;;;;;;;153.87;28.30;;;6.30;99.90;;;;;;5053400;28;20032;-81
2022/11/19 06:53:12;;;;;;;474.23;49.07;;;6.30;99.90;;;;;;5035474;28;20028;-81
2022/11/19 06:55:38;;;;;;;43.40;24.63;;;6.30;99.90;;;;;;5017555;28;20387;-81
2022/11/19 06:58:05;;;;;;;42.33;24.37;;;6.30;99.90;;;;;;5038786;28;20029;-81
2022/11/19 07:00:31;;;;;;;46.23;25.03;;;6.30;99.90;;;;;;5034827;28;20532;-81
2022/11/19 07:02:58;;;;;;;52.93;24.20;;;6.30;99.90;;;;;;5034862;28;20040;-81
2022/11/19 07:05:24;;;;;;;28.53;24.00;;;6.30;99.90;;;;;;4992380;28;20052;-81
2022/11/19 07:07:50;;;;;;;77.10;24.93;;;6.30;99.90;;;;;;5029704;28;20402;-81
2022/11/19 07:10:16;;;;;;;471.37;42.63;;;6.30;99.90;;;;;;5033670;28;20054;-81
2022/11/19 07:12:42;;;;;;;37.70;23.70;;;6.20;99.90;;;;;;5052951;28;20037;-81
2022/11/19 07:15:09;;;;;;;111.20;27.07;;;6.20;99.90;;;;;;5006913;28;20060;-81
2022/11/19 07:17:35;;;;;;;53.80;25.33;;;6.20;99.90;;;;;;5014849;28;20021;-81
2022/11/19 07:20:01;;;;;;;91.83;28.00;;;6.20;99.90;;;;;;5042720;28;20386;-80
2022/11/19 07:22:27;;;;;;;52.73;24.87;;;6.20;99.90;;;;;;5018683;28;20037;-81
2022/11/19 07:24:53;;;;;;;87.43;26.60;;;6.10;99.90;;;;;;5007005;28;20036;-84
2022/11/19 07:27:19;;;;;;;449.50;39.13;;;6.10;99.90;;;;;;4990147;28;20051;-83
2022/11/19 07:29:45;;;;;;;148.17;29.03;;;6.00;99.90;;;;;;5043165;28;20037;-83
2022/11/19 07:32:11;;;;;;;44.73;24.03;;;6.00;99.90;;;;;;5044049;28;20041;-82
2022/11/19 07:34:37;;;;;;;48.27;25.00;;;6.00;99.90;;;;;;5018789;28;20045;-83
2022/11/19 07:37:03;;;;;;;33.30;23.57;;;6.00;99.90;;;;;;5028564;28;20029;-80
2022/11/19 07:39:30;;;;;;;37.20;24.33;;;6.10;99.90;;;;;;5032596;28;20033;-80
2022/11/19 07:44:40;;;;;;;898.50;73.43;;;6.10;99.90;;;;;;5019253;28;20041;-80
2022/11/19 07:47:07;;;;;;;155.87;28.93;;;6.10;99.90;;;;;;5022214;28;20477;-81
2022/11/19 07:49:33;;;;;;;51.40;24.03;;;6.10;99.90;;;;;;5023565;28;20025;-81
2022/11/19 07:51:59;;;;;;;58.00;24.20;;;6.10;99.90;;;;;;5052179;28;20037;-81
2022/11/19 07:54:25;;;;;;;91.73;25.17;;;6.10;99.90;;;;;;5016759;28;20041;-81
2022/11/19 07:56:51;;;;;;;40.23;24.40;;;6.00;99.90;;;;;;5026069;28;20049;-81
2022/11/19 07:59:17;;;;;;;37.57;23.30;;;5.90;99.90;;;;;;5048735;28;20033;-81
2022/11/19 08:01:43;;;;;;;189.47;31.03;;;6.00;99.90;;;;;;5036798;28;20073;-81
2022/11/19 08:04:10;;;;;;;57.37;25.83;;;6.10;99.90;;;;;;5013516;28;20041;-82
2022/11/19 08:06:36;;;;;;;47.47;24.97;;;6.00;99.90;;;;;;5002709;28;20036;-81
2022/11/19 08:09:02;;;;;;;54.43;24.77;;;6.10;99.90;;;;;;5031567;28;20034;-79
2022/11/19 08:11:28;;;;;;;53.27;25.50;;;6.10;99.90;;;;;;4998526;28;20351;-80
2022/11/19 08:13:55;;;;;;;36.37;24.87;;;6.00;99.90;;;;;;5033878;28;20021;-81
2022/11/19 08:19:10;;;;;;;37.57;23.43;;;6.10;99.90;;;;;;5018538;28;20501;-80
2022/11/19 08:21:38;;;;;;;27.05;22.73;;;6.20;99.90;;;;;;5017620;28;20059;-81
2022/11/19 08:24:05;;;;;;;32.73;24.07;;;6.20;99.90;;;;;;5010493;28;20037;-79
2022/11/19 08:26:31;;;;;;;45.00;24.77;;;6.20;99.90;;;;;;5042244;28;20037;-80
2022/11/19 08:28:57;;;;;;;27.97;25.33;;;6.20;99.90;;;;;;4996056;28;20060;-80
2022/11/19 08:31:23;;;;;;;173.57;32.30;;;6.20;99.90;;;;;;5017824;28;20037;-81
2022/11/19 08:33:49;;;;;;;618.00;57.43;;;6.30;99.90;;;;;;5016516;28;20029;-82
2022/11/19 08:36:15;;;;;;;26.90;24.53;;;6.30;99.90;;;;;;5024467;28;20366;-80
2022/11/19 08:38:41;;;;;;;27.63;25.23;;;6.40;99.90;;;;;;5034678;28;20025;-79
2022/11/19 08:43:52;;;;;;;27.77;25.40;;;6.40;99.90;;;;;;5045275;28;20037;-80
2022/11/19 08:46:18;;;;;;;24.90;22.80;;;6.50;99.90;;;;;;5037950;28;20405;-82
2022/11/19 08:48:44;;;;;;;28.30;25.63;;;6.50;99.90;;;;;;5051373;28;20033;-79
2022/11/19 08:51:13;;;;;;;33.67;25.33;;;6.50;99.90;;;;;;5028949;28;20029;-79
2022/11/19 08:53:39;;;;;;;27.10;24.53;;;6.60;99.90;;;;;;5036179;28;20413;-79
2022/11/19 08:56:06;;;;;;;28.50;25.90;;;6.60;99.90;;;;;;5019590;28;20223;-81
2022/11/19 08:58:32;;;;;;;28.13;25.63;;;6.60;99.90;;;;;;5030333;28;20033;-80
2022/11/19 09:00:58;;;;;;;28.70;26.00;;;6.70;99.90;;;;;;5018237;28;20061;-80
2022/11/19 09:03:24;;;;;;;29.00;26.50;;;6.80;99.90;;;;;;5021089;28;20033;-80
2022/11/19 09:05:58;;;;;;;142.73;31.80;;;6.80;99.90;;;;;;5018549;28;20045;-79
2022/11/19 09:08:24;;;;;;;31.10;25.50;;;7.00;99.90;;;;;;5035953;28;20029;-79
2022/11/19 09:10:50;;;;;;;29.13;26.43;;;7.10;99.90;;;;;;5020702;28;20032;-79
2022/11/19 09:13:16;;;;;;;29.53;26.97;;;7.20;99.90;;;;;;5035627;28;20024;-79
2022/11/19 09:15:42;;;;;;;31.03;28.33;;;7.30;99.90;;;;;;5017319;28;20371;-79
2022/11/19 09:18:09;;;;;;;33.23;30.00;;;7.30;99.90;;;;;;5035231;28;20022;-79
2022/11/19 09:20:35;;;;;;;32.40;29.47;;;7.30;99.90;;;;;;5049524;28;20474;-79
2022/11/19 09:23:01;;;;;;;31.00;28.03;;;7.40;99.90;;;;;;5037391;28;20040;-79
2022/11/19 09:25:28;;;;;;;28.87;26.47;;;7.50;99.90;;;;;;5023622;28;20394;-81
2022/11/19 09:27:54;;;;;;;27.60;25.30;;;7.60;99.90;;;;;;5002031;28;20025;-81
2022/11/19 09:30:20;;;;;;;29.27;26.77;;;7.60;99.90;;;;;;5033327;28;20033;-81
2022/11/19 09:32:46;;;;;;;33.37;30.73;;;7.70;99.90;;;;;;5035135;28;20023;-79
2022/11/19 09:35:12;;;;;;;28.60;26.33;;;7.90;99.90;;;;;;5021991;28;20040;-80
2022/11/19 09:37:39;;;;;;;28.95;26.70;;;7.90;99.90;;;;;;5048651;28;20021;-79
2022/11/19 09:40:07;;;;;;;29.55;27.27;;;8.00;99.90;;;;;;5041388;28;20040;-82
2022/11/19 09:42:41;;;;;;;257.30;44.07;;;8.10;99.90;;;;;;5000785;28;20056;-82
2022/11/19 09:45:07;;;;;;;31.70;28.75;;;8.20;99.90;;;;;;5001869;28;20030;-82
2022/11/19 09:47:58;;;;;;;30.45;27.85;;;8.30;99.90;;;;;;5039816;28;20028;-82
2022/11/19 09:50:26;;;;;;;30.33;27.80;;;8.40;99.90;;;;;;5038013;28;20071;-82
2022/11/19 09:53:00;;;;;;;31.52;29.02;;;8.40;99.90;;;;;;5019043;28;20029;-81
2022/11/19 09:55:46;;;;;;;32.15;29.23;;;8.50;99.90;;;;;;5030299;28;20040;-82
2022/11/19 09:58:34;;;;;;;30.50;28.05;;;8.60;99.90;;;;;;5020572;28;20044;-81
2022/11/19 10:01:00;;;;;;;34.58;31.55;;;8.60;99.90;;;;;;5035905;28;20060;-81
2022/11/19 10:03:26;;;;;;;29.45;27.15;;;8.70;99.90;;;;;;5027391;28;20033;-81
2022/11/19 10:06:08;;;;;;;34.60;31.95;;;8.70;99.90;;;;;;5007379;28;20501;-81
2022/11/19 10:08:53;;;;;;;33.47;31.15;;;8.80;99.90;;;;;;5017834;28;20041;-81
2022/11/19 10:11:40;;;;;;;32.72;30.42;;;8.90;99.90;;;;;;5014014;28;20029;-80
2022/11/19 10:14:10;;;;;;;34.25;31.63;;;8.90;99.90;;;;;;5023362;28;20037;-81
2022/11/19 10:16:38;;;;;;;33.45;30.58;;;9.00;99.90;;;;;;5022091;28;20040;-81
2022/11/19 10:19:14;;;;;;;31.27;28.70;;;9.00;99.90;;;;;;5044386;28;20033;-81
2022/11/19 10:21:43;;;;;;;29.85;27.35;;;9.10;99.90;;;;;;5043824;28;20036;-81
2022/11/19 10:24:25;;;;;;;32.42;30.20;;;9.20;99.90;;;;;;5015154;28;20037;-81
2022/11/19 10:27:03;;;;;;;31.45;29.13;;;9.30;99.90;;;;;;5006268;28;20025;-81
2022/11/19 10:29:29;;;;;;;33.47;30.77;;;9.30;99.90;;;;;;5000035;28;20030;-81
2022/11/19 10:32:15;;;;;;;33.67;31.30;;;9.30;99.90;;;;;;5008163;28;20036;-84
2022/11/19 10:34:41;;;;;;;33.20;30.42;;;9.30;99.90;;;;;;5035570;28;20025;-81
2022/11/19 10:37:09;;;;;;;36.05;33.13;;;9.40;99.90;;;;;;4998147;28;20375;-81
2022/11/19 10:39:43;;;;;;;33.42;30.92;;;9.40;99.90;;;;;;4990931;28;20040;-78
2022/11/19 10:42:25;;;;;;;29.92;27.42;;;9.40;99.90;;;;;;5019529;28;20474;-77
2022/11/19 10:45:00;;;;;;;27.92;25.85;;;9.50;99.90;;;;;;5009842;28;20022;-79
2022/11/19 10:47:46;;;;;;;28.08;25.42;;;9.60;99.90;;;;;;5029246;28;20033;-81
2022/11/19 10:50:17;;;;;;;30.70;28.40;;;9.70;99.90;;;;;;5014699;28;20036;-80
2022/11/19 10:52:45;;;;;;;34.38;31.73;;;9.70;99.90;;;;;;4998846;28;20048;-81
2022/11/19 10:55:30;;;;;;;30.05;27.67;;;9.80;99.90;;;;;;4998563;28;20037;-82
2022/11/19 10:58:09;;;;;;;30.45;28.13;;;9.80;99.90;;;;;;5034186;28;20048;-81
2022/11/19 11:00:36;;;;;;;26.50;24.17;;;9.90;99.90;;;;;;5014727;28;20030;-82
2022/11/19 11:03:02;;;;;;;24.83;22.55;;;10.00;99.90;;;;;;5031355;28;20044;-85
2022/11/19 11:05:28;;;;;;;23.58;21.73;;;10.00;99.90;;;;;;4998821;28;20033;-85
2022/11/19 11:07:59;;;;;;;24.58;22.25;;;10.00;99.90;;;;;;5009366;28;20048;-82
2022/11/19 11:10:26;;;;;;;23.42;21.85;;;10.10;99.90;;;;;;5022479;28;20032;-83
2022/11/19 11:15:44;;;;;;;24.48;22.77;;;10.20;99.90;;;;;;5017718;28;20029;-86
2022/11/19 11:18:10;;;;;;;22.98;21.38;;;10.30;99.90;;;;;;4996055;28;20061;-82
2022/11/19 11:20:37;;;;;;;21.27;19.83;;;10.30;99.90;;;;;;5001268;28;20057;-84
2022/11/19 11:23:05;;;;;;;21.88;20.10;;;10.30;99.90;;;;;;5016697;28;20048;-84
2022/11/19 11:25:31;;;;;;;19.42;17.42;;;10.40;99.90;;;;;;5010345;28;20025;-85
2022/11/19 11:28:11;;;;;;;21.60;20.17;;;10.40;99.90;;;;;;5000889;28;20398;-87
2022/11/19 11:30:40;;;;;;;20.00;18.30;;;10.40;99.90;;;;;;5042669;28;20009;-87
2022/11/19 11:33:31;;;;;;;27.02;24.92;;;10.50;99.90;;;;;;5041764;28;20037;-90
2022/11/19 11:36:10;;;;;;;28.73;26.67;;;10.60;99.90;;;;;;5016158;28;20040;-87
2022/11/19 11:38:47;;;;;;;26.63;25.05;;;10.70;99.90;;;;;;5032826;28;20371;-87
2022/11/19 11:41:23;;;;;;;28.67;26.48;;;10.70;99.90;;;;;;4997763;28;20041;-86
2022/11/19 11:44:29;;;;;;;28.75;26.63;;;10.80;99.90;;;;;;5001549;28;20041;-87
2022/11/19 11:46:56;;;;;;;27.77;25.38;;;10.80;99.90;;;;;;5029135;28;20037;-87
2022/11/19 11:49:36;;;;;;;25.92;24.08;;;10.90;99.90;;;;;;5021172;28;20385;-87
2022/11/19 11:52:08;;;;;;;25.23;23.30;;;10.90;99.90;;;;;;5014443;28;20478;-88
2022/11/19 11:54:35;;;;;;;23.10;21.60;;;10.90;99.90;;;;;;5037196;28;20035;-85
2022/11/19 11:57:23;;;;;;;23.77;22.27;;;10.90;99.90;;;;;;5033927;28;20083;-86
2022/11/19 11:59:49;;;;;;;25.10;23.35;;;10.90;99.90;;;;;;5033969;28;20373;-86
2022/11/19 12:02:32;;;;;;;23.27;21.45;;;11.00;99.90;;;;;;5017029;28;20041;-85
2022/11/19 12:05:03;;;;;;;24.73;23.00;;;11.00;99.90;;;;;;5050984;28;20013;-86
2022/11/19 12:07:36;;;;;;;24.90;23.17;;;11.10;99.90;;;;;;5035869;28;20021;-87
2022/11/19 12:10:38;;;;;;;25.08;23.17;;;11.10;99.90;;;;;;5046424;28;20021;-89
2022/11/19 12:13:29;;;;;;;25.50;23.35;;;11.10;99.90;;;;;;5029703;28;20029;-86
2022/11/19 12:16:24;;;;;;;24.90;23.38;;;11.20;99.90;;;;;;5071674;28;20036;-87
2022/11/19 12:19:09;;;;;;;24.95;23.08;;;11.30;99.90;;;;;;5059073;28;20026;-85
2022/11/19 12:21:47;;;;;;;22.52;20.88;;;11.30;99.90;;;;;;5028991;28;20053;-83
2022/11/19 12:24:22;;;;;;;24.50;22.23;;;11.40;99.90;;;;;;5036865;28;20030;-85
2022/11/19 12:27:22;;;;;;;21.40;19.80;;;11.40;99.90;;;;;;5050556;28;20025;-84
2022/11/19 12:29:56;;;;;;;21.50;20.17;;;11.60;99.90;;;;;;5026974;28;20421;-84
2022/11/19 12:32:50;;;;;;;21.98;20.60;;;11.80;99.90;;;;;;5024710;28;20486;-84
2022/11/19 12:35:24;;;;;;;23.17;21.63;;;12.00;99.90;;;;;;5035348;28;20044;-86
2022/11/19 12:38:21;;;;;;;22.70;21.00;;;12.00;99.90;;;;;;5017734;28;20037;-85
2022/11/19 12:40:52;;;;;;;22.45;20.95;;;12.10;99.90;;;;;;5035884;28;20041;-86
2022/11/19 12:43:43;;;;;;;22.75;21.02;;;12.10;99.90;;;;;;5034856;28;20410;-87
2022/11/19 12:46:47;;;;;;;21.83;20.17;;;12.10;99.90;;;;;;5024155;28;20038;-85
2022/11/19 12:49:23;;;;;;;23.15;21.63;;;12.00;99.90;;;;;;5034146;28;20388;-82
2022/11/19 12:52:15;;;;;;;20.52;19.05;;;12.00;99.90;;;;;;5028911;28;20498;-87
2022/11/19 12:54:51;;;;;;;20.67;19.25;;;12.10;99.90;;;;;;5013579;28;20049;-87
2022/11/19 12:57:34;;;;;;;22.23;20.70;;;12.10;99.90;;;;;;5021060;28;20045;-85
2022/11/19 13:00:17;;;;;;;21.27;19.60;;;12.10;99.90;;;;;;5019259;28;20049;-86
2022/11/19 13:03:05;;;;;;;20.80;19.38;;;12.10;99.90;;;;;;5017569;28;20049;-87
2022/11/19 13:05:40;;;;;;;21.45;20.15;;;12.10;99.90;;;;;;5051742;28;20335;-80
2022/11/19 13:08:33;;;;;;;21.15;19.85;;;12.00;99.90;;;;;;5019349;28;20052;-85
2022/11/19 13:11:21;;;;;;;21.83;19.88;;;12.20;99.90;;;;;;5019984;28;20037;-85
2022/11/19 13:13:51;;;;;;;20.77;19.25;;;12.20;99.90;;;;;;5033572;28;20056;-87
2022/11/19 13:16:19;;;;;;;22.27;20.50;;;12.30;99.90;;;;;;4984315;28;20037;-82
2022/11/19 13:18:46;;;;;;;22.02;20.52;;;12.30;99.90;;;;;;5018463;28;20026;-83